sensor_id;sensor_type;location;lat;lon;timestamp;P1;durP1;ratioP1;P2;durP2;ratioP2
54171;SDS011;40076;52.354;4.970;2023-04-06T00:00:48;22.77;;;13.80;;
54171;SDS011;40076;52.354;4.970;2023-04-06T00:03:14;23.08;;;13.82;;
54171;SDS011;40076;52.354;4.970;2023-04-06T00:05:39;20.67;;;13.05;;
54171;SDS011;40076;52.354;4.970;2023-04-06T00:08:05;23.25;;;13.90;;
54171;SDS011;40076;52.354;4.970;2023-04-06T00:10:30;21.42;;;13.55;;
54171;SDS011;40076;52.354;4.970;2023-04-06T00:12:56;19.63;;;13.60;;
54171;SDS011;40076;52.354;4.970;2023-04-06T00:15:22;22.83;;;14.02;;
54171;SDS011;40076;52.354;4.970;2023-04-06T00:17:47;18.88;;;12.98;;
54171;SDS011;40076;52.354;4.970;2023-04-06T00:20:13;20.65;;;13.60;;
54171;SDS011;40076;52.354;4.970;2023-04-06T00:22:39;22.75;;;13.38;;
54171;SDS011;40076;52.354;4.970;2023-04-06T00:25:05;19.17;;;12.45;;
54171;SDS011;40076;52.354;4.970;2023-04-06T00:27:30;20.10;;;13.85;;
54171;SDS011;40076;52.354;4.970;2023-04-06T00:29:56;18.35;;;12.52;;
54171;SDS011;40076;52.354;4.970;2023-04-06T00:32:21;19.52;;;12.90;;
54171;SDS011;40076;52.354;4.970;2023-04-06T00:34:46;18.08;;;12.07;;
54171;SDS011;40076;52.354;4.970;2023-04-06T00:37:12;18.77;;;12.40;;
54171;SDS011;40076;52.354;4.970;2023-04-06T00:39:37;18.48;;;12.35;;
54171;SDS011;40076;52.354;4.970;2023-04-06T00:42:06;18.08;;;12.30;;
54171;SDS011;40076;52.354;4.970;2023-04-06T00:44:35;15.38;;;11.30;;
54171;SDS011;40076;52.354;4.970;2023-04-06T00:47:00;19.00;;;11.50;;
54171;SDS011;40076;52.354;4.970;2023-04-06T00:49:26;20.55;;;11.88;;
54171;SDS011;40076;52.354;4.970;2023-04-06T00:51:51;19.80;;;11.10;;
54171;SDS011;40076;52.354;4.970;2023-04-06T00:54:17;14.50;;;10.55;;
54171;SDS011;40076;52.354;4.970;2023-04-06T00:56:43;17.17;;;11.52;;
54171;SDS011;40076;52.354;4.970;2023-04-06T00:59:08;18.38;;;11.10;;
54171;SDS011;40076;52.354;4.970;2023-04-06T01:01:34;18.10;;;11.30;;
54171;SDS011;40076;52.354;4.970;2023-04-06T01:04:00;17.58;;;11.82;;
54171;SDS011;40076;52.354;4.970;2023-04-06T01:06:27;19.88;;;10.98;;
54171;SDS011;40076;52.354;4.970;2023-04-06T01:08:53;17.83;;;11.15;;
54171;SDS011;40076;52.354;4.970;2023-04-06T01:11:18;17.92;;;11.95;;
54171;SDS011;40076;52.354;4.970;2023-04-06T01:13:43;17.95;;;10.70;;
54171;SDS011;40076;52.354;4.970;2023-04-06T01:16:08;19.00;;;11.13;;
54171;SDS011;40076;52.354;4.970;2023-04-06T01:18:34;16.77;;;10.98;;
54171;SDS011;40076;52.354;4.970;2023-04-06T01:21:01;18.65;;;11.40;;
54171;SDS011;40076;52.354;4.970;2023-04-06T01:23:26;16.95;;;10.32;;
54171;SDS011;40076;52.354;4.970;2023-04-06T01:25:51;18.48;;;11.55;;
54171;SDS011;40076;52.354;4.970;2023-04-06T01:28:17;17.10;;;11.15;;
54171;SDS011;40076;52.354;4.970;2023-04-06T01:30:42;14.27;;;10.32;;
54171;SDS011;40076;52.354;4.970;2023-04-06T01:33:07;15.25;;;10.27;;
54171;SDS011;40076;52.354;4.970;2023-04-06T01:35:32;17.00;;;10.82;;
54171;SDS011;40076;52.354;4.970;2023-04-06T01:37:58;19.33;;;11.13;;
54171;SDS011;40076;52.354;4.970;2023-04-06T01:40:23;18.73;;;11.05;;
54171;SDS011;40076;52.354;4.970;2023-04-06T01:42:48;18.45;;;10.77;;
54171;SDS011;40076;52.354;4.970;2023-04-06T01:45:14;16.40;;;10.50;;
54171;SDS011;40076;52.354;4.970;2023-04-06T01:47:39;15.48;;;10.40;;
54171;SDS011;40076;52.354;4.970;2023-04-06T01:50:05;16.27;;;10.68;;
54171;SDS011;40076;52.354;4.970;2023-04-06T01:52:31;16.00;;;10.35;;
54171;SDS011;40076;52.354;4.970;2023-04-06T01:54:57;17.60;;;11.02;;
54171;SDS011;40076;52.354;4.970;2023-04-06T01:57:23;18.42;;;10.20;;
54171;SDS011;40076;52.354;4.970;2023-04-06T01:59:48;16.02;;;9.93;;
54171;SDS011;40076;52.354;4.970;2023-04-06T02:02:13;18.83;;;10.48;;
54171;SDS011;40076;52.354;4.970;2023-04-06T02:04:39;14.25;;;9.68;;
54171;SDS011;40076;52.354;4.970;2023-04-06T02:07:04;16.27;;;10.50;;
54171;SDS011;40076;52.354;4.970;2023-04-06T02:09:29;15.77;;;9.38;;
54171;SDS011;40076;52.354;4.970;2023-04-06T02:11:55;16.25;;;9.68;;
54171;SDS011;40076;52.354;4.970;2023-04-06T02:14:20;16.40;;;10.25;;
54171;SDS011;40076;52.354;4.970;2023-04-06T02:16:46;15.35;;;9.60;;
54171;SDS011;40076;52.354;4.970;2023-04-06T02:19:11;19.80;;;10.85;;
54171;SDS011;40076;52.354;4.970;2023-04-06T02:21:36;15.82;;;9.70;;
54171;SDS011;40076;52.354;4.970;2023-04-06T02:24:01;14.68;;;9.27;;
54171;SDS011;40076;52.354;4.970;2023-04-06T02:26:27;16.23;;;10.65;;
54171;SDS011;40076;52.354;4.970;2023-04-06T02:28:52;15.02;;;9.80;;
54171;SDS011;40076;52.354;4.970;2023-04-06T02:31:17;14.02;;;9.82;;
54171;SDS011;40076;52.354;4.970;2023-04-06T02:33:43;13.27;;;9.32;;
54171;SDS011;40076;52.354;4.970;2023-04-06T02:36:08;13.98;;;9.63;;
54171;SDS011;40076;52.354;4.970;2023-04-06T02:38:33;17.50;;;10.05;;
54171;SDS011;40076;52.354;4.970;2023-04-06T02:40:58;15.50;;;9.30;;
54171;SDS011;40076;52.354;4.970;2023-04-06T02:43:24;15.82;;;10.23;;
54171;SDS011;40076;52.354;4.970;2023-04-06T02:45:49;16.38;;;9.65;;
54171;SDS011;40076;52.354;4.970;2023-04-06T02:48:14;16.27;;;9.75;;
54171;SDS011;40076;52.354;4.970;2023-04-06T02:50:40;16.00;;;10.07;;
54171;SDS011;40076;52.354;4.970;2023-04-06T02:53:05;15.23;;;9.52;;
54171;SDS011;40076;52.354;4.970;2023-04-06T02:55:30;17.42;;;10.38;;
54171;SDS011;40076;52.354;4.970;2023-04-06T02:57:56;16.63;;;9.55;;
54171;SDS011;40076;52.354;4.970;2023-04-06T03:00:21;15.77;;;10.45;;
54171;SDS011;40076;52.354;4.970;2023-04-06T03:02:47;15.82;;;9.18;;
54171;SDS011;40076;52.354;4.970;2023-04-06T03:05:12;15.43;;;9.73;;
54171;SDS011;40076;52.354;4.970;2023-04-06T03:07:37;14.23;;;9.32;;
54171;SDS011;40076;52.354;4.970;2023-04-06T03:10:03;15.68;;;9.70;;
54171;SDS011;40076;52.354;4.970;2023-04-06T03:12:28;16.30;;;9.70;;
54171;SDS011;40076;52.354;4.970;2023-04-06T03:14:53;16.45;;;9.80;;
54171;SDS011;40076;52.354;4.970;2023-04-06T03:17:19;17.40;;;9.55;;
54171;SDS011;40076;52.354;4.970;2023-04-06T03:19:44;17.55;;;9.70;;
54171;SDS011;40076;52.354;4.970;2023-04-06T03:22:09;16.73;;;10.45;;
54171;SDS011;40076;52.354;4.970;2023-04-06T03:24:35;14.75;;;9.98;;
54171;SDS011;40076;52.354;4.970;2023-04-06T03:27:00;15.18;;;10.13;;
54171;SDS011;40076;52.354;4.970;2023-04-06T03:29:26;15.02;;;9.95;;
54171;SDS011;40076;52.354;4.970;2023-04-06T03:31:52;15.23;;;10.27;;
54171;SDS011;40076;52.354;4.970;2023-04-06T03:34:17;15.25;;;9.32;;
54171;SDS011;40076;52.354;4.970;2023-04-06T03:36:42;15.63;;;9.73;;
54171;SDS011;40076;52.354;4.970;2023-04-06T03:39:07;16.67;;;10.23;;
54171;SDS011;40076;52.354;4.970;2023-04-06T03:41:33;14.07;;;10.02;;
54171;SDS011;40076;52.354;4.970;2023-04-06T03:43:58;18.73;;;10.43;;
54171;SDS011;40076;52.354;4.970;2023-04-06T03:46:23;15.20;;;9.80;;
54171;SDS011;40076;52.354;4.970;2023-04-06T03:48:49;16.73;;;10.25;;
54171;SDS011;40076;52.354;4.970;2023-04-06T03:51:14;18.27;;;10.90;;
54171;SDS011;40076;52.354;4.970;2023-04-06T03:53:40;15.35;;;10.32;;
54171;SDS011;40076;52.354;4.970;2023-04-06T03:56:05;15.43;;;10.43;;
54171;SDS011;40076;52.354;4.970;2023-04-06T03:58:31;16.00;;;11.10;;
54171;SDS011;40076;52.354;4.970;2023-04-06T04:00:56;14.63;;;10.13;;
54171;SDS011;40076;52.354;4.970;2023-04-06T04:03:21;15.65;;;10.25;;
54171;SDS011;40076;52.354;4.970;2023-04-06T04:05:48;15.02;;;10.07;;
54171;SDS011;40076;52.354;4.970;2023-04-06T04:08:15;17.65;;;10.02;;
54171;SDS011;40076;52.354;4.970;2023-04-06T04:10:40;18.15;;;10.50;;
54171;SDS011;40076;52.354;4.970;2023-04-06T04:13:05;19.75;;;11.07;;
54171;SDS011;40076;52.354;4.970;2023-04-06T04:15:31;16.17;;;10.57;;
54171;SDS011;40076;52.354;4.970;2023-04-06T04:17:56;17.83;;;10.55;;
54171;SDS011;40076;52.354;4.970;2023-04-06T04:20:21;16.20;;;10.43;;
54171;SDS011;40076;52.354;4.970;2023-04-06T04:22:47;16.38;;;10.30;;
54171;SDS011;40076;52.354;4.970;2023-04-06T04:25:12;18.30;;;11.05;;
54171;SDS011;40076;52.354;4.970;2023-04-06T04:27:38;18.75;;;11.20;;
54171;SDS011;40076;52.354;4.970;2023-04-06T04:30:04;16.30;;;11.27;;
54171;SDS011;40076;52.354;4.970;2023-04-06T04:32:31;20.02;;;11.73;;
54171;SDS011;40076;52.354;4.970;2023-04-06T04:34:57;17.20;;;11.30;;
54171;SDS011;40076;52.354;4.970;2023-04-06T04:37:22;19.42;;;11.80;;
54171;SDS011;40076;52.354;4.970;2023-04-06T04:39:47;16.33;;;11.38;;
54171;SDS011;40076;52.354;4.970;2023-04-06T04:42:13;18.35;;;12.20;;
54171;SDS011;40076;52.354;4.970;2023-04-06T04:44:38;19.05;;;11.65;;
54171;SDS011;40076;52.354;4.970;2023-04-06T04:47:04;19.13;;;11.93;;
54171;SDS011;40076;52.354;4.970;2023-04-06T04:49:30;17.45;;;12.23;;
54171;SDS011;40076;52.354;4.970;2023-04-06T04:51:55;25.30;;;12.90;;
54171;SDS011;40076;52.354;4.970;2023-04-06T04:54:20;22.45;;;12.82;;
54171;SDS011;40076;52.354;4.970;2023-04-06T04:56:45;21.67;;;12.23;;
54171;SDS011;40076;52.354;4.970;2023-04-06T04:59:11;20.98;;;13.10;;
54171;SDS011;40076;52.354;4.970;2023-04-06T05:01:36;20.23;;;13.18;;
54171;SDS011;40076;52.354;4.970;2023-04-06T05:04:01;21.52;;;12.77;;
54171;SDS011;40076;52.354;4.970;2023-04-06T05:06:27;20.60;;;12.40;;
54171;SDS011;40076;52.354;4.970;2023-04-06T05:08:52;23.55;;;13.07;;
54171;SDS011;40076;52.354;4.970;2023-04-06T05:11:17;21.92;;;13.00;;
54171;SDS011;40076;52.354;4.970;2023-04-06T05:13:42;21.45;;;13.20;;
54171;SDS011;40076;52.354;4.970;2023-04-06T05:16:08;23.35;;;13.65;;
54171;SDS011;40076;52.354;4.970;2023-04-06T05:18:33;21.13;;;14.20;;
54171;SDS011;40076;52.354;4.970;2023-04-06T05:20:59;21.02;;;14.07;;
54171;SDS011;40076;52.354;4.970;2023-04-06T05:23:24;22.60;;;13.68;;
54171;SDS011;40076;52.354;4.970;2023-04-06T05:25:49;23.13;;;13.48;;
54171;SDS011;40076;52.354;4.970;2023-04-06T05:28:15;24.25;;;13.90;;
54171;SDS011;40076;52.354;4.970;2023-04-06T05:30:42;24.58;;;13.68;;
54171;SDS011;40076;52.354;4.970;2023-04-06T05:33:08;25.67;;;13.98;;
54171;SDS011;40076;52.354;4.970;2023-04-06T05:35:34;25.33;;;14.95;;
54171;SDS011;40076;52.354;4.970;2023-04-06T05:37:59;20.00;;;13.57;;
54171;SDS011;40076;52.354;4.970;2023-04-06T05:40:25;22.95;;;13.93;;
54171;SDS011;40076;52.354;4.970;2023-04-06T05:42:50;22.20;;;14.45;;
54171;SDS011;40076;52.354;4.970;2023-04-06T05:45:16;22.80;;;15.07;;
54171;SDS011;40076;52.354;4.970;2023-04-06T05:47:43;23.30;;;14.18;;
54171;SDS011;40076;52.354;4.970;2023-04-06T05:50:09;25.05;;;14.90;;
54171;SDS011;40076;52.354;4.970;2023-04-06T05:52:35;25.60;;;14.70;;
54171;SDS011;40076;52.354;4.970;2023-04-06T05:55:00;24.17;;;14.95;;
54171;SDS011;40076;52.354;4.970;2023-04-06T05:57:26;23.10;;;14.23;;
54171;SDS011;40076;52.354;4.970;2023-04-06T05:59:51;22.02;;;14.10;;
54171;SDS011;40076;52.354;4.970;2023-04-06T06:02:16;24.48;;;15.15;;
54171;SDS011;40076;52.354;4.970;2023-04-06T06:04:42;23.67;;;14.68;;
54171;SDS011;40076;52.354;4.970;2023-04-06T06:07:07;24.20;;;14.93;;
54171;SDS011;40076;52.354;4.970;2023-04-06T06:09:32;27.27;;;16.40;;
54171;SDS011;40076;52.354;4.970;2023-04-06T06:11:57;27.08;;;15.27;;
54171;SDS011;40076;52.354;4.970;2023-04-06T06:14:23;25.90;;;15.73;;
54171;SDS011;40076;52.354;4.970;2023-04-06T06:16:48;26.90;;;15.55;;
54171;SDS011;40076;52.354;4.970;2023-04-06T06:19:14;25.52;;;15.20;;
54171;SDS011;40076;52.354;4.970;2023-04-06T06:21:39;24.92;;;16.15;;
54171;SDS011;40076;52.354;4.970;2023-04-06T06:24:05;27.13;;;17.08;;
54171;SDS011;40076;52.354;4.970;2023-04-06T06:26:30;23.13;;;15.05;;
54171;SDS011;40076;52.354;4.970;2023-04-06T06:28:56;24.17;;;15.32;;
54171;SDS011;40076;52.354;4.970;2023-04-06T06:31:21;28.15;;;15.75;;
54171;SDS011;40076;52.354;4.970;2023-04-06T06:33:47;25.90;;;16.35;;
54171;SDS011;40076;52.354;4.970;2023-04-06T06:36:15;33.25;;;16.73;;
54171;SDS011;40076;52.354;4.970;2023-04-06T06:38:41;26.95;;;16.73;;
54171;SDS011;40076;52.354;4.970;2023-04-06T06:41:06;27.17;;;17.23;;
54171;SDS011;40076;52.354;4.970;2023-04-06T06:43:32;26.83;;;16.65;;
54171;SDS011;40076;52.354;4.970;2023-04-06T06:45:57;31.50;;;18.48;;
54171;SDS011;40076;52.354;4.970;2023-04-06T06:48:23;27.45;;;17.58;;
54171;SDS011;40076;52.354;4.970;2023-04-06T06:50:48;27.17;;;17.17;;
54171;SDS011;40076;52.354;4.970;2023-04-06T06:53:14;28.25;;;17.63;;
54171;SDS011;40076;52.354;4.970;2023-04-06T06:55:40;27.95;;;18.15;;
54171;SDS011;40076;52.354;4.970;2023-04-06T06:58:05;29.38;;;19.13;;
54171;SDS011;40076;52.354;4.970;2023-04-06T07:00:31;31.38;;;17.88;;
54171;SDS011;40076;52.354;4.970;2023-04-06T07:02:57;31.42;;;19.10;;
54171;SDS011;40076;52.354;4.970;2023-04-06T07:05:22;29.73;;;18.95;;
54171;SDS011;40076;52.354;4.970;2023-04-06T07:07:47;27.38;;;17.52;;
54171;SDS011;40076;52.354;4.970;2023-04-06T07:10:12;29.17;;;17.92;;
54171;SDS011;40076;52.354;4.970;2023-04-06T07:12:38;30.17;;;18.38;;
54171;SDS011;40076;52.354;4.970;2023-04-06T07:15:03;28.83;;;18.77;;
54171;SDS011;40076;52.354;4.970;2023-04-06T07:17:29;30.27;;;18.70;;
54171;SDS011;40076;52.354;4.970;2023-04-06T07:19:55;30.67;;;18.42;;
54171;SDS011;40076;52.354;4.970;2023-04-06T07:22:20;28.63;;;18.48;;
54171;SDS011;40076;52.354;4.970;2023-04-06T07:24:45;31.88;;;18.15;;
54171;SDS011;40076;52.354;4.970;2023-04-06T07:27:11;31.20;;;19.33;;
54171;SDS011;40076;52.354;4.970;2023-04-06T07:29:36;30.83;;;18.13;;
54171;SDS011;40076;52.354;4.970;2023-04-06T07:32:01;28.33;;;18.17;;
54171;SDS011;40076;52.354;4.970;2023-04-06T07:34:27;31.17;;;19.45;;
54171;SDS011;40076;52.354;4.970;2023-04-06T07:36:53;30.08;;;18.58;;
54171;SDS011;40076;52.354;4.970;2023-04-06T07:39:20;33.30;;;19.23;;
54171;SDS011;40076;52.354;4.970;2023-04-06T07:41:47;32.00;;;18.55;;
54171;SDS011;40076;52.354;4.970;2023-04-06T07:44:12;31.25;;;19.30;;
54171;SDS011;40076;52.354;4.970;2023-04-06T07:46:38;31.45;;;20.60;;
54171;SDS011;40076;52.354;4.970;2023-04-06T07:49:03;34.33;;;20.17;;
54171;SDS011;40076;52.354;4.970;2023-04-06T07:51:29;33.30;;;18.90;;
54171;SDS011;40076;52.354;4.970;2023-04-06T07:53:54;31.45;;;19.83;;
54171;SDS011;40076;52.354;4.970;2023-04-06T07:56:19;33.55;;;20.92;;
54171;SDS011;40076;52.354;4.970;2023-04-06T07:58:45;32.95;;;20.52;;
54171;SDS011;40076;52.354;4.970;2023-04-06T08:01:11;32.70;;;20.20;;
54171;SDS011;40076;52.354;4.970;2023-04-06T08:03:36;34.28;;;20.73;;
54171;SDS011;40076;52.354;4.970;2023-04-06T08:06:02;32.88;;;21.05;;
54171;SDS011;40076;52.354;4.970;2023-04-06T08:08:28;31.77;;;20.58;;
54171;SDS011;40076;52.354;4.970;2023-04-06T08:10:54;34.67;;;20.60;;
54171;SDS011;40076;52.354;4.970;2023-04-06T08:13:19;35.83;;;20.52;;
54171;SDS011;40076;52.354;4.970;2023-04-06T08:15:45;32.10;;;20.45;;
54171;SDS011;40076;52.354;4.970;2023-04-06T08:18:11;33.55;;;20.40;;
54171;SDS011;40076;52.354;4.970;2023-04-06T08:20:36;31.92;;;19.50;;
54171;SDS011;40076;52.354;4.970;2023-04-06T08:23:02;34.90;;;20.60;;
54171;SDS011;40076;52.354;4.970;2023-04-06T08:25:27;30.30;;;19.83;;
54171;SDS011;40076;52.354;4.970;2023-04-06T08:27:52;31.30;;;20.50;;
54171;SDS011;40076;52.354;4.970;2023-04-06T08:30:18;30.77;;;19.95;;
54171;SDS011;40076;52.354;4.970;2023-04-06T08:32:44;28.92;;;20.25;;
54171;SDS011;40076;52.354;4.970;2023-04-06T08:35:10;32.28;;;20.05;;
54171;SDS011;40076;52.354;4.970;2023-04-06T08:37:35;26.75;;;19.23;;
54171;SDS011;40076;52.354;4.970;2023-04-06T08:40:01;31.73;;;21.02;;
54171;SDS011;40076;52.354;4.970;2023-04-06T08:42:26;30.30;;;20.60;;
54171;SDS011;40076;52.354;4.970;2023-04-06T08:44:56;31.75;;;21.58;;
54171;SDS011;40076;52.354;4.970;2023-04-06T08:47:22;32.55;;;21.33;;
54171;SDS011;40076;52.354;4.970;2023-04-06T08:49:47;33.45;;;21.50;;
54171;SDS011;40076;52.354;4.970;2023-04-06T08:52:14;32.35;;;21.23;;
54171;SDS011;40076;52.354;4.970;2023-04-06T08:54:43;31.05;;;20.65;;
54171;SDS011;40076;52.354;4.970;2023-04-06T08:57:08;32.47;;;21.20;;
54171;SDS011;40076;52.354;4.970;2023-04-06T08:59:34;30.20;;;20.98;;
54171;SDS011;40076;52.354;4.970;2023-04-06T09:02:00;32.50;;;21.40;;
54171;SDS011;40076;52.354;4.970;2023-04-06T09:04:28;33.28;;;22.20;;
54171;SDS011;40076;52.354;4.970;2023-04-06T09:06:54;33.75;;;22.38;;
54171;SDS011;40076;52.354;4.970;2023-04-06T09:09:19;37.40;;;22.20;;
54171;SDS011;40076;52.354;4.970;2023-04-06T09:11:46;33.08;;;22.13;;
54171;SDS011;40076;52.354;4.970;2023-04-06T09:14:15;35.03;;;23.17;;
54171;SDS011;40076;52.354;4.970;2023-04-06T09:16:42;35.92;;;23.77;;
54171;SDS011;40076;52.354;4.970;2023-04-06T09:19:10;35.20;;;22.73;;
54171;SDS011;40076;52.354;4.970;2023-04-06T09:21:36;36.42;;;22.77;;
54171;SDS011;40076;52.354;4.970;2023-04-06T09:24:02;37.65;;;23.50;;
54171;SDS011;40076;52.354;4.970;2023-04-06T09:26:28;33.70;;;22.02;;
54171;SDS011;40076;52.354;4.970;2023-04-06T09:28:54;35.60;;;22.42;;
54171;SDS011;40076;52.354;4.970;2023-04-06T09:33:50;32.38;;;22.60;;
54171;SDS011;40076;52.354;4.970;2023-04-06T09:36:17;39.22;;;24.00;;
54171;SDS011;40076;52.354;4.970;2023-04-06T09:38:55;34.58;;;23.73;;
54171;SDS011;40076;52.354;4.970;2023-04-06T09:43:49;40.85;;;24.75;;
54171;SDS011;40076;52.354;4.970;2023-04-06T09:46:15;38.92;;;25.05;;
54171;SDS011;40076;52.354;4.970;2023-04-06T09:48:41;38.30;;;24.92;;
54171;SDS011;40076;52.354;4.970;2023-04-06T09:51:07;35.38;;;24.48;;
54171;SDS011;40076;52.354;4.970;2023-04-06T09:53:37;38.67;;;25.00;;
54171;SDS011;40076;52.354;4.970;2023-04-06T09:56:06;39.00;;;25.98;;
54171;SDS011;40076;52.354;4.970;2023-04-06T09:58:37;39.78;;;26.20;;
54171;SDS011;40076;52.354;4.970;2023-04-06T10:01:10;35.60;;;24.17;;
54171;SDS011;40076;52.354;4.970;2023-04-06T10:03:47;40.92;;;25.45;;
54171;SDS011;40076;52.354;4.970;2023-04-06T10:06:17;35.67;;;24.13;;
54171;SDS011;40076;52.354;4.970;2023-04-06T10:08:46;36.50;;;23.58;;
54171;SDS011;40076;52.354;4.970;2023-04-06T10:11:14;37.30;;;23.75;;
54171;SDS011;40076;52.354;4.970;2023-04-06T10:13:40;39.97;;;24.85;;
54171;SDS011;40076;52.354;4.970;2023-04-06T10:16:06;37.38;;;23.27;;
54171;SDS011;40076;52.354;4.970;2023-04-06T10:18:32;38.38;;;23.05;;
54171;SDS011;40076;52.354;4.970;2023-04-06T10:21:04;36.75;;;22.50;;
54171;SDS011;40076;52.354;4.970;2023-04-06T10:23:39;34.08;;;21.08;;
54171;SDS011;40076;52.354;4.970;2023-04-06T10:26:12;33.60;;;20.95;;
54171;SDS011;40076;52.354;4.970;2023-04-06T10:28:40;39.60;;;22.00;;
54171;SDS011;40076;52.354;4.970;2023-04-06T10:31:06;33.20;;;20.52;;
54171;SDS011;40076;52.354;4.970;2023-04-06T10:33:32;27.67;;;18.30;;
54171;SDS011;40076;52.354;4.970;2023-04-06T10:35:57;29.85;;;17.83;;
54171;SDS011;40076;52.354;4.970;2023-04-06T10:38:34;27.60;;;16.63;;
54171;SDS011;40076;52.354;4.970;2023-04-06T10:41:04;26.83;;;15.23;;
54171;SDS011;40076;52.354;4.970;2023-04-06T10:43:33;29.70;;;16.55;;
54171;SDS011;40076;52.354;4.970;2023-04-06T10:46:03;24.05;;;15.82;;
54171;SDS011;40076;52.354;4.970;2023-04-06T10:48:38;25.23;;;15.73;;
54171;SDS011;40076;52.354;4.970;2023-04-06T10:51:15;23.52;;;14.45;;
54171;SDS011;40076;52.354;4.970;2023-04-06T10:53:42;26.60;;;16.73;;
54171;SDS011;40076;52.354;4.970;2023-04-06T10:56:10;21.50;;;15.20;;
54171;SDS011;40076;52.354;4.970;2023-04-06T10:58:45;27.30;;;16.73;;
54171;SDS011;40076;52.354;4.970;2023-04-06T11:01:19;25.90;;;18.15;;
54171;SDS011;40076;52.354;4.970;2023-04-06T11:03:46;30.17;;;17.42;;
54171;SDS011;40076;52.354;4.970;2023-04-06T11:06:19;26.08;;;17.30;;
54171;SDS011;40076;52.354;4.970;2023-04-06T11:08:45;26.13;;;16.90;;
54171;SDS011;40076;52.354;4.970;2023-04-06T11:11:11;25.33;;;17.10;;
54171;SDS011;40076;52.354;4.970;2023-04-06T11:13:41;29.45;;;17.52;;
54171;SDS011;40076;52.354;4.970;2023-04-06T11:16:18;24.92;;;16.42;;
54171;SDS011;40076;52.354;4.970;2023-04-06T11:19:02;21.50;;;13.88;;
54171;SDS011;40076;52.354;4.970;2023-04-06T11:21:39;19.33;;;13.00;;
54171;SDS011;40076;52.354;4.970;2023-04-06T11:24:09;22.20;;;14.82;;
54171;SDS011;40076;52.354;4.970;2023-04-06T11:26:40;17.98;;;12.80;;
54171;SDS011;40076;52.354;4.970;2023-04-06T11:29:06;19.73;;;12.65;;
54171;SDS011;40076;52.354;4.970;2023-04-06T11:31:42;17.50;;;12.95;;
54171;SDS011;40076;52.354;4.970;2023-04-06T11:34:13;18.83;;;12.10;;
54171;SDS011;40076;52.354;4.970;2023-04-06T11:36:42;15.70;;;11.52;;
54171;SDS011;40076;52.354;4.970;2023-04-06T11:39:08;13.18;;;10.50;;
54171;SDS011;40076;52.354;4.970;2023-04-06T11:41:34;17.10;;;11.70;;
54171;SDS011;40076;52.354;4.970;2023-04-06T11:44:01;16.27;;;11.35;;
54171;SDS011;40076;52.354;4.970;2023-04-06T11:46:27;16.77;;;11.27;;
54171;SDS011;40076;52.354;4.970;2023-04-06T11:48:57;15.60;;;11.10;;
54171;SDS011;40076;52.354;4.970;2023-04-06T11:51:23;13.88;;;10.32;;
54171;SDS011;40076;52.354;4.970;2023-04-06T11:53:49;12.55;;;9.50;;
54171;SDS011;40076;52.354;4.970;2023-04-06T11:56:24;13.65;;;10.48;;
54171;SDS011;40076;52.354;4.970;2023-04-06T11:58:50;12.82;;;10.65;;
54171;SDS011;40076;52.354;4.970;2023-04-06T12:01:16;15.55;;;11.27;;
54171;SDS011;40076;52.354;4.970;2023-04-06T12:03:41;16.23;;;10.55;;
54171;SDS011;40076;52.354;4.970;2023-04-06T12:06:07;15.32;;;10.70;;
54171;SDS011;40076;52.354;4.970;2023-04-06T12:08:32;12.60;;;9.27;;
54171;SDS011;40076;52.354;4.970;2023-04-06T12:10:57;14.15;;;10.38;;
54171;SDS011;40076;52.354;4.970;2023-04-06T12:13:24;13.73;;;10.77;;
54171;SDS011;40076;52.354;4.970;2023-04-06T12:15:49;18.40;;;11.80;;
54171;SDS011;40076;52.354;4.970;2023-04-06T12:18:15;16.77;;;10.35;;
54171;SDS011;40076;52.354;4.970;2023-04-06T12:20:40;16.88;;;10.93;;
54171;SDS011;40076;52.354;4.970;2023-04-06T12:23:05;15.32;;;10.05;;
54171;SDS011;40076;52.354;4.970;2023-04-06T12:25:31;14.50;;;10.95;;
54171;SDS011;40076;52.354;4.970;2023-04-06T12:27:56;14.95;;;10.50;;
54171;SDS011;40076;52.354;4.970;2023-04-06T12:30:21;15.15;;;11.05;;
54171;SDS011;40076;52.354;4.970;2023-04-06T12:32:46;15.23;;;10.57;;
54171;SDS011;40076;52.354;4.970;2023-04-06T12:35:12;18.23;;;11.88;;
54171;SDS011;40076;52.354;4.970;2023-04-06T12:37:40;16.75;;;12.00;;
54171;SDS011;40076;52.354;4.970;2023-04-06T12:40:06;16.63;;;12.13;;
54171;SDS011;40076;52.354;4.970;2023-04-06T12:42:32;15.70;;;10.82;;
54171;SDS011;40076;52.354;4.970;2023-04-06T12:44:57;16.58;;;11.25;;
54171;SDS011;40076;52.354;4.970;2023-04-06T12:47:22;17.40;;;11.90;;
54171;SDS011;40076;52.354;4.970;2023-04-06T12:49:48;17.67;;;11.77;;
54171;SDS011;40076;52.354;4.970;2023-04-06T12:52:13;16.63;;;12.30;;
54171;SDS011;40076;52.354;4.970;2023-04-06T12:54:38;18.75;;;11.95;;
54171;SDS011;40076;52.354;4.970;2023-04-06T12:57:03;19.02;;;13.07;;
54171;SDS011;40076;52.354;4.970;2023-04-06T12:59:29;15.35;;;11.82;;
54171;SDS011;40076;52.354;4.970;2023-04-06T13:01:59;16.90;;;12.77;;
54171;SDS011;40076;52.354;4.970;2023-04-06T13:04:25;17.88;;;12.15;;
54171;SDS011;40076;52.354;4.970;2023-04-06T13:06:51;17.85;;;12.02;;
54171;SDS011;40076;52.354;4.970;2023-04-06T13:09:16;16.77;;;12.18;;
54171;SDS011;40076;52.354;4.970;2023-04-06T13:11:41;16.58;;;11.65;;
54171;SDS011;40076;52.354;4.970;2023-04-06T13:14:07;16.50;;;12.02;;
54171;SDS011;40076;52.354;4.970;2023-04-06T13:16:32;15.88;;;12.20;;
54171;SDS011;40076;52.354;4.970;2023-04-06T13:18:57;16.95;;;12.20;;
54171;SDS011;40076;52.354;4.970;2023-04-06T13:21:23;16.58;;;12.82;;
54171;SDS011;40076;52.354;4.970;2023-04-06T13:23:48;16.25;;;12.60;;
54171;SDS011;40076;52.354;4.970;2023-04-06T13:26:13;18.05;;;13.13;;
54171;SDS011;40076;52.354;4.970;2023-04-06T13:28:40;18.73;;;13.52;;
54171;SDS011;40076;52.354;4.970;2023-04-06T13:31:05;20.65;;;14.90;;
54171;SDS011;40076;52.354;4.970;2023-04-06T13:33:32;20.90;;;14.10;;
54171;SDS011;40076;52.354;4.970;2023-04-06T13:35:58;21.60;;;14.52;;
54171;SDS011;40076;52.354;4.970;2023-04-06T13:38:23;20.67;;;14.73;;
54171;SDS011;40076;52.354;4.970;2023-04-06T13:40:49;23.65;;;14.43;;
54171;SDS011;40076;52.354;4.970;2023-04-06T13:43:14;22.38;;;14.77;;
54171;SDS011;40076;52.354;4.970;2023-04-06T13:45:40;23.77;;;15.95;;
54171;SDS011;40076;52.354;4.970;2023-04-06T13:48:06;21.63;;;14.85;;
54171;SDS011;40076;52.354;4.970;2023-04-06T13:50:32;20.48;;;15.48;;
54171;SDS011;40076;52.354;4.970;2023-04-06T13:52:57;23.08;;;15.68;;
54171;SDS011;40076;52.354;4.970;2023-04-06T13:55:23;21.23;;;15.95;;
54171;SDS011;40076;52.354;4.970;2023-04-06T13:57:49;21.40;;;15.93;;
54171;SDS011;40076;52.354;4.970;2023-04-06T14:00:15;20.55;;;15.13;;
54171;SDS011;40076;52.354;4.970;2023-04-06T14:02:40;22.15;;;15.05;;
54171;SDS011;40076;52.354;4.970;2023-04-06T14:05:06;24.73;;;16.27;;
54171;SDS011;40076;52.354;4.970;2023-04-06T14:07:32;20.83;;;15.45;;
54171;SDS011;40076;52.354;4.970;2023-04-06T14:09:57;23.92;;;15.82;;
54171;SDS011;40076;52.354;4.970;2023-04-06T14:12:22;21.02;;;15.90;;
54171;SDS011;40076;52.354;4.970;2023-04-06T14:14:48;21.83;;;16.10;;
54171;SDS011;40076;52.354;4.970;2023-04-06T14:17:13;21.23;;;15.10;;
54171;SDS011;40076;52.354;4.970;2023-04-06T14:19:38;18.88;;;15.45;;
54171;SDS011;40076;52.354;4.970;2023-04-06T14:22:04;20.83;;;16.35;;